首页
METAR-TAF:

METAR-TAF

机场 :

溫哥華國際機場

溫哥華, 不列颠哥伦比亚, 加拿大

纬度: 49-11N, 经度: 123-10W, 海拔: 3米

当前天气观测

该预报发布于1小时和3分钟前的22:00 UTC
风速8节,风向西南
温度 19°C
湿度 60%
气压 1021 hPa
能見度: 48.3公里
少量云层高于3000英尺
少量云层高于3500英尺
少量云层高于22000英尺

METAR: CYVR 232200Z 22008KT 30SM FEW030 FEW035 FEW220 19/11 A3016 RMK CU1SC1CI1 SC TR CI TR CONTRAILS SLP215 DENSITY ALT 300FT

时间: 16:03 (23:03 UTC)

预报

该预报发布于2小时和25分钟前的20:38 UTC
预报有效从23日的 21点(UTC)到 24日的 24点(UTC)
风速6节,风向西南
能見度: 10公里
少量云层高于3000英尺
成为
从 24日的 02点(UTC)到 24日的 04点(UTC)
风速5节,风向东转东南
从 24日的 1700点(UTC)
风速8节,风向南转西南
能見度: 10公里
多云层高于10000英尺
成为
从 24日的 18点(UTC)到 24日的 20点(UTC)
风速10节,风向西转西北

TAF: CYVR 232038Z 2321/2424 23006KT P6SM FEW030 BECMG 2402/2404 12005KT FM241700 20008KT P6SM BKN100 BECMG 2418/2420 29010KT RMK NXT FCST BY 240000Z

超过4000个机场的气象观测和天气预报(METAR&TAF报告)。

可查询的气象台以黄色和红色小点在地图上表示。

将鼠标移到小点上方,可查看气象台名称。

然后点击查看天气观测和预报。

如需切换地图:点击带黑十字的绿色按钮放大地图;点击带横线的绿色按钮缩小地图;或者点击绿色箭头查看邻近地区的地图。


METAR-TAF: